Time;durP1;ratioP1;P1;durP2;ratioP2;P2;SDS_P1;SDS_P2;PMS_P1;PMS_P2;Temp;Humidity;BMP_temperature;BMP_pressure;BME280_temperature;BME280_humidity;BME280_pressure;Samples;Min_cycle;Max_cycle;Signal;HPM_P1;HPM_P2
2023/09/02 00:01:56;;;;;;;2.38;2.17;;;16.20;99.90;;;;;;5253316;28;20024;-60
2023/09/02 00:04:29;;;;;;;2.65;2.45;;;16.10;99.90;;;;;;5260422;28;20039;-62
2023/09/02 00:07:00;;;;;;;2.45;1.88;;;16.00;99.90;;;;;;5263063;28;20031;-61
2023/09/02 00:09:31;;;;;;;1.88;1.73;;;16.00;99.90;;;;;;5262271;28;20316;-61
2023/09/02 00:12:03;;;;;;;2.05;1.85;;;15.90;99.90;;;;;;5241225;28;20027;-63
2023/09/02 00:14:37;;;;;;;1.83;1.60;;;15.80;99.90;;;;;;5257765;28;20480;-61
2023/09/02 00:17:08;;;;;;;2.10;1.90;;;15.80;99.90;;;;;;5225113;28;20040;-62
2023/09/02 00:19:40;;;;;;;2.63;2.42;;;15.70;99.90;;;;;;5224171;28;20020;-62
2023/09/02 00:22:12;;;;;;;3.45;1.90;;;15.70;99.90;;;;;;5241598;28;20019;-62
2023/09/02 00:24:44;;;;;;;2.25;2.05;;;15.70;99.90;;;;;;5223165;28;20568;-62
2023/09/02 00:27:18;;;;;;;2.17;1.90;;;15.80;99.90;;;;;;5249697;28;20034;-63
2023/09/02 00:29:49;;;;;;;1.90;1.80;;;15.80;99.90;;;;;;5227207;28;20032;-62
2023/09/02 00:32:21;;;;;;;3.10;2.38;;;15.90;99.90;;;;;;5256381;28;20026;-64
2023/09/02 00:34:54;;;;;;;2.17;1.98;;;15.90;99.90;;;;;;5242322;28;20039;-62
2023/09/02 00:37:31;;;;;;;5.45;1.90;;;15.90;99.90;;;;;;5225141;28;20047;-63
2023/09/02 00:40:09;;;;;;;2.10;1.90;;;15.90;99.90;;;;;;5225594;28;20048;-60
2023/09/02 00:42:42;;;;;;;3.55;1.70;;;15.90;99.90;;;;;;5239990;28;20461;-64
2023/09/02 00:45:15;;;;;;;1.52;1.42;;;16.00;99.90;;;;;;5221399;28;20032;-63
2023/09/02 00:47:48;;;;;;;2.17;1.98;;;16.00;99.90;;;;;;5226625;28;20038;-61
2023/09/02 00:50:22;;;;;;;1.90;1.75;;;16.00;99.90;;;;;;5256155;28;20102;-63
2023/09/02 00:52:56;;;;;;;1.60;1.50;;;16.10;99.90;;;;;;5224678;28;20023;-64
2023/09/02 00:55:27;;;;;;;1.33;1.23;;;16.10;99.90;;;;;;5257884;28;20038;-63
2023/09/02 00:57:59;;;;;;;1.50;1.40;;;16.10;99.90;;;;;;5271826;28;20047;-64
2023/09/02 01:00:30;;;;;;;2.40;1.40;;;16.30;99.90;;;;;;5244754;28;20025;-62
2023/09/02 01:03:02;;;;;;;1.70;1.60;;;16.30;99.90;;;;;;5275120;22;20218;-83
2023/09/02 01:05:38;;;;;;;2.08;1.88;;;16.40;99.90;;;;;;5245558;28;20034;-85
2023/09/02 01:08:13;;;;;;;1.85;1.67;;;16.50;99.90;;;;;;5263370;28;20027;-87
2023/09/02 01:10:48;;;;;;;1.65;1.40;;;16.50;99.90;;;;;;5246417;28;20042;-85
2023/09/02 01:13:19;;;;;;;2.00;1.77;;;16.50;99.90;;;;;;5264660;28;20038;-87
2023/09/02 01:15:58;;;;;;;1.65;1.48;;;16.50;99.90;;;;;;5263887;28;20032;-84
2023/09/02 01:18:37;;;;;;;1.90;1.80;;;16.50;99.90;;;;;;5247378;28;20034;-84
2023/09/02 01:21:30;;;;;;;1.60;1.50;;;16.60;99.90;;;;;;5246305;28;20030;-88
2023/09/02 01:27:35;;;;;;;1.85;1.60;;;16.60;99.90;;;;;;5280208;28;20028;-85
2023/09/02 01:30:22;;;;;;;1.77;1.67;;;16.60;99.90;;;;;;5263199;28;20028;-84
2023/09/02 01:32:57;;;;;;;1.92;1.52;;;16.70;99.90;;;;;;5230902;28;20040;-87
2023/09/02 01:35:37;;;;;;;1.60;1.50;;;16.60;99.90;;;;;;5263991;28;20038;-86
2023/09/02 01:38:14;;;;;;;1.88;1.70;;;16.60;99.90;;;;;;5264129;28;20218;-85
2023/09/02 01:40:47;;;;;;;2.13;1.88;;;16.60;99.90;;;;;;5264859;28;20031;-85
2023/09/02 01:43:21;;;;;;;1.70;1.60;;;16.50;99.90;;;;;;5264870;28;20198;-85
2023/09/02 01:49:24;;;;;;;1.60;1.50;;;16.30;99.90;;;;;;5288559;28;20035;-85
2023/09/02 01:52:04;;;;;;;1.60;1.50;;;16.20;99.90;;;;;;5251005;28;20027;-87
2023/09/02 01:54:38;;;;;;;2.22;1.48;;;16.10;99.90;;;;;;5267818;28;20042;-84
2023/09/02 01:57:17;;;;;;;2.33;1.52;;;16.10;99.90;;;;;;5266331;28;20034;-85
2023/09/02 01:59:51;;;;;;;1.80;1.70;;;16.10;99.90;;;;;;5266410;28;20024;-84
2023/09/02 02:02:45;;;;;;;2.50;1.58;;;16.00;99.90;;;;;;5262157;28;20222;-85
2023/09/02 02:05:24;;;;;;;2.13;1.50;;;16.00;99.90;;;;;;5268078;28;20039;-86
2023/09/02 02:08:07;;;;;;;2.03;1.58;;;15.90;99.90;;;;;;5265320;28;20028;-85
2023/09/02 02:10:47;;;;;;;1.63;1.52;;;15.80;99.90;;;;;;5265186;28;20119;-86
2023/09/02 02:13:23;;;;;;;1.83;1.70;;;15.70;99.90;;;;;;5264107;28;20076;-86
2023/09/02 02:15:55;;;;;;;2.13;1.65;;;15.70;99.90;;;;;;5264600;28;20038;-86
2023/09/02 02:18:28;;;;;;;1.83;1.73;;;15.70;99.90;;;;;;5263524;28;20038;-85
2023/09/02 02:21:03;;;;;;;1.65;1.55;;;15.60;99.90;;;;;;5263141;28;20024;-85
2023/09/02 02:23:36;;;;;;;2.00;1.70;;;15.40;99.90;;;;;;5264152;28;20020;-85
2023/09/02 02:26:10;;;;;;;3.75;1.58;;;15.40;99.90;;;;;;5266571;28;20028;-85
2023/09/02 02:28:48;;;;;;;2.20;2.00;;;15.50;99.90;;;;;;5265983;28;20032;-86
2023/09/02 02:31:24;;;;;;;2.25;1.70;;;15.50;99.90;;;;;;5282207;28;20321;-86
2023/09/02 02:33:59;;;;;;;1.70;1.60;;;15.40;99.90;;;;;;5282306;28;20036;-86
2023/09/02 02:36:33;;;;;;;1.98;1.77;;;15.40;99.90;;;;;;5249646;28;20202;-86
2023/09/02 02:39:09;;;;;;;3.90;2.00;;;15.20;99.90;;;;;;5261349;28;20035;-86
2023/09/02 02:41:40;;;;;;;1.90;1.60;;;15.20;99.90;;;;;;5263374;28;20034;-86
2023/09/02 02:44:12;;;;;;;2.45;1.90;;;15.20;99.90;;;;;;5264305;28;20031;-86
2023/09/02 02:46:43;;;;;;;2.20;1.90;;;15.10;99.90;;;;;;5246777;28;20038;-86
2023/09/02 02:49:19;;;;;;;2.25;1.98;;;15.00;99.90;;;;;;5263379;28;20050;-85
2023/09/02 02:51:51;;;;;;;1.70;1.60;;;15.00;99.90;;;;;;5268396;28;20028;-86
2023/09/02 02:54:27;;;;;;;2.10;1.90;;;15.00;99.90;;;;;;5267742;28;20034;-86
2023/09/02 02:56:58;;;;;;;1.92;1.70;;;14.90;99.90;;;;;;5267454;28;20028;-86
2023/09/02 02:59:32;;;;;;;2.60;1.90;;;14.80;99.90;;;;;;5267398;28;20041;-85
2023/09/02 03:02:03;;;;;;;2.55;2.25;;;14.80;99.90;;;;;;5267883;28;20028;-85
2023/09/02 03:04:37;;;;;;;2.47;1.80;;;14.70;99.90;;;;;;5250858;28;20209;-85
2023/09/02 03:07:08;;;;;;;2.28;2.08;;;14.60;99.90;;;;;;5250246;28;20028;-85
2023/09/02 03:09:42;;;;;;;2.35;1.85;;;14.70;99.90;;;;;;5250926;28;20031;-86
2023/09/02 03:12:15;;;;;;;;;;;14.60;99.90;;;;;;5267484;28;20032;-86
2023/09/02 03:14:47;;;;;;;2.47;1.65;;;14.70;99.90;;;;;;5266750;28;19900;-85
2023/09/02 03:17:22;;;;;;;1.83;1.73;;;14.70;99.90;;;;;;5249846;28;20034;-87
2023/09/02 03:19:54;;;;;;;1.80;1.67;;;14.70;99.90;;;;;;5250728;28;20034;-86
2023/09/02 03:22:28;;;;;;;3.15;1.70;;;14.60;99.90;;;;;;5250958;28;20028;-86
2023/09/02 03:25:00;;;;;;;4.03;1.73;;;14.60;99.90;;;;;;5250620;28;20038;-85
2023/09/02 03:27:31;;;;;;;1.48;1.38;;;14.60;99.90;;;;;;5237809;28;20098;-86
2023/09/02 03:30:06;;;;;;;2.00;1.80;;;14.50;99.90;;;;;;5250877;28;20036;-85
2023/09/02 03:32:45;;;;;;;2.17;1.98;;;14.50;99.90;;;;;;5233484;28;20035;-85
2023/09/02 03:35:17;;;;;;;2.17;1.70;;;14.50;99.90;;;;;;5249846;28;20024;-86
2023/09/02 03:37:51;;;;;;;1.83;1.73;;;14.50;99.90;;;;;;5250735;28;20210;-86
2023/09/02 03:40:22;;;;;;;1.95;1.65;;;14.50;99.90;;;;;;5267111;28;20034;-87
2023/09/02 03:42:55;;;;;;;1.98;1.67;;;14.60;99.90;;;;;;5248775;28;20030;-86
2023/09/02 03:45:39;;;;;;;2.55;2.03;;;14.60;99.90;;;;;;5249339;28;20046;-86
2023/09/02 03:48:13;;;;;;;1.70;1.60;;;14.60;99.90;;;;;;5233631;28;20039;-87
2023/09/02 03:51:17;;;;;;;2.05;1.90;;;14.60;99.90;;;;;;5266351;28;20032;-87
2023/09/02 03:53:51;;;;;;;2.35;1.45;;;14.60;99.90;;;;;;5265902;28;20032;-84
2023/09/02 03:56:22;;;;;;;1.65;1.40;;;14.60;99.90;;;;;;5249906;28;20032;-86
2023/09/02 03:58:54;;;;;;;2.35;1.67;;;14.60;99.90;;;;;;5249227;28;20238;-86
2023/09/02 04:01:28;;;;;;;2.55;1.92;;;14.70;99.90;;;;;;5247693;28;20035;-85
2023/09/02 04:04:04;;;;;;;1.63;1.52;;;14.80;99.90;;;;;;5248609;28;20038;-84
2023/09/02 04:06:35;;;;;;;2.38;1.80;;;14.80;99.90;;;;;;5233452;28;20034;-85
2023/09/02 04:09:10;;;;;;;1.77;1.67;;;14.80;99.90;;;;;;5265300;28;20028;-84
2023/09/02 04:11:44;;;;;;;1.50;1.40;;;14.70;99.90;;;;;;5248246;28;20036;-86
2023/09/02 04:14:21;;;;;;;2.25;1.85;;;14.80;99.90;;;;;;5234241;28;20061;-85
2023/09/02 04:17:00;;;;;;;2.00;1.80;;;14.80;99.90;;;;;;5249252;28;20032;-85
2023/09/02 04:19:33;;;;;;;2.08;1.70;;;14.70;99.90;;;;;;5249315;28;20035;-85
2023/09/02 04:22:04;;;;;;;1.75;1.60;;;14.70;99.90;;;;;;5253094;28;20028;-85
2023/09/02 04:24:35;;;;;;;1.70;1.60;;;14.60;99.90;;;;;;5248054;28;20186;-85
2023/09/02 04:27:07;;;;;;;2.28;2.03;;;14.50;99.90;;;;;;5248210;28;20034;-84
2023/09/02 04:29:40;;;;;;;1.52;1.42;;;14.60;99.90;;;;;;5248080;28;20028;-85
2023/09/02 04:32:13;;;;;;;3.35;1.67;;;14.60;99.90;;;;;;5249026;28;20034;-86
2023/09/02 04:34:46;;;;;;;2.38;1.63;;;14.60;99.90;;;;;;5247737;28;20028;-85
2023/09/02 04:37:20;;;;;;;1.65;1.55;;;14.60;99.90;;;;;;5264661;28;20032;-85
2023/09/02 04:39:53;;;;;;;1.60;1.50;;;14.70;99.90;;;;;;5265207;28;20032;-85
2023/09/02 04:42:25;;;;;;;1.73;1.60;;;14.80;99.90;;;;;;5264441;28;20028;-86
2023/09/02 04:44:56;;;;;;;2.03;1.77;;;14.80;99.90;;;;;;5247582;28;20255;-85
2023/09/02 04:47:27;;;;;;;2.00;1.60;;;14.80;99.90;;;;;;5247279;28;20030;-87
2023/09/02 04:50:00;;;;;;;1.73;1.63;;;15.00;99.90;;;;;;5248305;28;20318;-85
2023/09/02 04:52:32;;;;;;;2.25;1.52;;;15.30;99.90;;;;;;5246806;28;20062;-85
2023/09/02 04:55:03;;;;;;;1.70;1.60;;;15.60;99.90;;;;;;5247296;28;20034;-85
2023/09/02 04:57:34;;;;;;;1.67;1.58;;;15.80;99.90;;;;;;5246917;28;20038;-85
2023/09/02 05:00:07;;;;;;;1.63;1.48;;;16.00;99.90;;;;;;5215753;28;20043;-83
2023/09/02 05:02:38;;;;;;;1.50;1.40;;;16.30;99.90;;;;;;5265219;28;20044;-83
2023/09/02 05:05:14;;;;;;;1.55;1.42;;;16.50;99.90;;;;;;5247017;28;20038;-83
2023/09/02 05:07:49;;;;;;;1.52;1.42;;;16.50;86.00;;;;;;5264544;28;20372;-84
2023/09/02 05:10:23;;;;;;;1.70;1.60;;;16.80;99.90;;;;;;5264026;28;20039;-84
2023/09/02 05:12:59;;;;;;;1.48;1.38;;;17.20;20.70;;;;;;5246829;28;20225;-85
2023/09/02 05:15:33;;;;;;;1.38;1.27;;;17.60;1.00;;;;;;5246738;28;20036;-84
2023/09/02 05:18:10;;;;;;;1.45;1.35;;;17.90;1.00;;;;;;5247197;28;20043;-85
2023/09/02 05:20:44;;;;;;;1.73;1.40;;;18.30;1.00;;;;;;5264260;28;20024;-87
2023/09/02 05:23:15;;;;;;;2.50;1.60;;;18.20;1.00;;;;;;5246832;28;20027;-84
2023/09/02 05:25:54;;;;;;;1.33;1.23;;;18.20;1.00;;;;;;5247770;28;20034;-85
2023/09/02 05:28:27;;;;;;;2.03;1.52;;;18.40;1.00;;;;;;5264000;28;20034;-85
2023/09/02 05:31:03;;;;;;;1.35;1.25;;;18.80;99.90;;;;;;5246654;28;20034;-86
2023/09/02 05:33:37;;;;;;;1.48;1.00;;;19.20;99.90;;;;;;5263802;28;20225;-86
2023/09/02 05:36:09;;;;;;;1.38;1.20;;;19.40;55.00;;;;;;5231610;28;20040;-86
2023/09/02 05:38:40;;;;;;;1.85;1.25;;;19.70;1.00;;;;;;5246838;28;20032;-86
2023/09/02 05:41:14;;;;;;;1.50;1.40;;;20.10;1.00;;;;;;5246627;28;20028;-86
2023/09/02 05:43:45;;;;;;;1.83;1.35;;;20.40;1.00;;;;;;5247353;28;20034;-87
2023/09/02 05:46:19;;;;;;;1.30;1.20;;;20.80;1.00;;;;;;5246898;28;20026;-85
2023/09/02 05:48:50;;;;;;;1.05;1.05;;;21.10;99.90;;;;;;5263692;28;20318;-85
2023/09/02 05:51:28;;;;;;;2.53;1.38;;;21.40;99.90;;;;;;5246103;28;20326;-85
2023/09/02 05:54:00;;;;;;;2.45;1.40;;;21.60;99.90;;;;;;5263671;28;20034;-85
2023/09/02 05:57:09;;;;;;;1.35;1.15;;;21.80;1.00;;;;;;5246427;28;20032;-85
2023/09/02 05:59:44;;;;;;;1.95;1.52;;;21.90;1.00;;;;;;5246445;28;20040;-86
2023/09/02 06:02:17;;;;;;;2.35;1.40;;;21.80;1.00;;;;;;5267005;28;20035;-84
2023/09/02 06:04:50;;;;;;;3.38;1.67;;;21.90;1.00;;;;;;5285325;28;20345;-84
2023/09/02 06:07:21;;;;;;;1.50;1.40;;;21.80;1.00;;;;;;5266426;28;20322;-85
2023/09/02 06:09:55;;;;;;;1.73;1.25;;;22.00;1.00;;;;;;5267574;28;20314;-85
2023/09/02 06:12:26;;;;;;;1.42;1.33;;;22.10;1.00;;;;;;5268905;28;20037;-85
2023/09/02 06:15:05;;;;;;;2.00;1.50;;;22.30;1.00;;;;;;5269759;28;20019;-85
2023/09/02 06:17:36;;;;;;;1.38;1.20;;;22.60;1.00;;;;;;5271363;28;20031;-84
2023/09/02 06:20:08;;;;;;;1.58;1.35;;;22.90;1.00;;;;;;5271339;28;20034;-85
2023/09/02 06:22:39;;;;;;;2.08;1.63;;;22.80;1.00;;;;;;5269341;28;20038;-85
2023/09/02 06:25:13;;;;;;;3.92;1.48;;;22.80;99.90;;;;;;5267723;28;20034;-86
2023/09/02 06:27:47;;;;;;;1.30;1.20;;;22.90;99.90;;;;;;5269144;28;20045;-85
2023/09/02 06:30:18;;;;;;;1.60;1.42;;;22.90;1.00;;;;;;5268624;28;20030;-84
2023/09/02 06:32:54;;;;;;;1.20;1.10;;;23.10;99.90;;;;;;5268050;28;20035;-84
2023/09/02 06:35:32;;;;;;;2.30;1.15;;;23.50;99.90;;;;;;5237481;28;20042;-85
2023/09/02 06:38:03;;;;;;;1.77;1.20;;;23.90;99.90;;;;;;5270281;28;20034;-86
2023/09/02 06:40:34;;;;;;;2.20;1.17;;;24.10;99.90;;;;;;5252761;28;20038;-87
2023/09/02 06:43:08;;;;;;;2.75;1.27;;;24.30;99.90;;;;;;5269738;28;20027;-86
2023/09/02 06:45:41;;;;;;;1.98;1.30;;;24.20;99.90;;;;;;5269242;28;20034;-86
2023/09/02 06:48:15;;;;;;;1.30;1.20;;;23.90;1.00;;;;;;5253607;28;20034;-86
2023/09/02 06:50:48;;;;;;;2.80;1.37;;;23.90;99.90;;;;;;5269375;28;20028;-87
2023/09/02 06:53:19;;;;;;;1.20;1.10;;;24.20;99.90;;;;;;5268474;28;20254;-85
2023/09/02 06:55:51;;;;;;;1.58;1.27;;;24.10;99.90;;;;;;5269392;28;20023;-85
2023/09/02 06:58:22;;;;;;;2.03;1.10;;;24.50;68.20;;;;;;5268255;28;20031;-85
2023/09/02 07:00:56;;;;;;;1.95;1.38;;;24.90;5.20;;;;;;5284809;28;20027;-85
2023/09/02 07:03:28;;;;;;;1.40;1.30;;;25.30;1.00;;;;;;5254634;28;20443;-84
2023/09/02 07:06:06;;;;;;;3.17;1.20;;;25.40;99.90;;;;;;5263884;28;20225;-84
2023/09/02 07:08:38;;;;;;;1.40;1.30;;;25.70;99.90;;;;;;5247553;28;20229;-85
2023/09/02 07:11:14;;;;;;;3.13;1.45;;;25.80;99.90;;;;;;5246226;28;20031;-84
2023/09/02 07:13:47;;;;;;;1.52;1.10;;;25.70;1.00;;;;;;5262740;28;20031;-84
2023/09/02 07:16:22;;;;;;;2.60;1.40;;;25.80;35.80;;;;;;5263162;28;20035;-84
2023/09/02 07:18:58;;;;;;;1.25;1.10;;;25.70;1.00;;;;;;5247910;28;20024;-86
2023/09/02 07:21:32;;;;;;;1.42;1.33;;;25.90;1.00;;;;;;5215456;28;20034;-85
2023/09/02 07:24:06;;;;;;;1.00;1.00;;;26.10;38.60;;;;;;5246873;28;20030;-86
2023/09/02 07:26:40;;;;;;;2.25;1.15;;;26.30;1.00;;;;;;5246233;28;20032;-86
2023/09/02 07:29:13;;;;;;;1.17;1.02;;;26.70;1.00;;;;;;5245603;28;20218;-86
2023/09/02 07:31:49;;;;;;;2.03;1.73;;;27.10;1.00;;;;;;5245889;28;20034;-85
2023/09/02 07:34:23;;;;;;;1.50;1.40;;;27.20;1.00;;;;;;5264544;28;20034;-86
2023/09/02 07:36:55;;;;;;;1.45;1.35;;;27.00;1.00;;;;;;5233425;28;20042;-86
2023/09/02 07:39:28;;;;;;;1.20;1.10;;;26.60;1.00;;;;;;5249314;28;20024;-86
2023/09/02 07:42:00;;;;;;;1.98;1.58;;;26.40;1.00;;;;;;5249194;28;20034;-85
2023/09/02 07:44:34;;;;;;;1.40;1.30;;;26.60;1.00;;;;;;5249067;28;20028;-86
2023/09/02 07:47:12;;;;;;;2.45;1.40;;;26.90;99.90;;;;;;5249568;28;20210;-85
2023/09/02 07:49:46;;;;;;;0.93;0.93;;;27.30;1.00;;;;;;5250007;28;20035;-87
2023/09/02 07:52:20;;;;;;;;;;;27.40;99.90;;;;;;5232271;28;20043;-85
2023/09/02 07:54:54;;;;;;;1.43;1.33;;;27.20;99.90;;;;;;5232476;28;19903;-86
2023/09/02 07:57:25;;;;;;;1.67;1.23;;;27.30;1.00;;;;;;5264992;28;20028;-84
2023/09/02 08:00:01;;;;;;;1.42;1.20;;;27.50;99.90;;;;;;5248587;28;20028;-84
2023/09/02 08:02:32;;;;;;;1.20;1.10;;;27.70;99.90;;;;;;5266651;28;20027;-85
2023/09/02 08:05:09;;;;;;;3.05;1.27;;;28.00;99.90;;;;;;5232206;28;20032;-85
2023/09/02 08:07:40;;;;;;;1.63;1.13;;;28.00;99.90;;;;;;5265413;28;20027;-86
2023/09/02 08:10:15;;;;;;;1.65;1.23;;;28.20;99.90;;;;;;5248232;28;20046;-86
2023/09/02 08:12:47;;;;;;;3.03;1.40;;;28.20;99.90;;;;;;5266737;28;20032;-86
2023/09/02 08:15:19;;;;;;;1.20;1.10;;;28.10;99.90;;;;;;5248624;28;20028;-84
2023/09/02 08:17:52;;;;;;;1.13;1.02;;;28.00;99.90;;;;;;5249141;28;20038;-86
2023/09/02 08:20:26;;;;;;;1.30;1.20;;;28.10;99.90;;;;;;5249219;28;20328;-86
2023/09/02 08:22:58;;;;;;;2.45;1.27;;;28.30;99.90;;;;;;5265685;28;20038;-87
2023/09/02 08:25:33;;;;;;;2.05;1.25;;;28.50;1.00;;;;;;5265736;28;20019;-87
2023/09/02 08:28:07;;;;;;;2.58;1.40;;;28.70;1.00;;;;;;5249167;28;20023;-86
2023/09/02 08:30:42;;;;;;;1.67;1.35;;;28.70;99.90;;;;;;5265862;28;20032;-88
2023/09/02 08:33:16;;;;;;;2.05;1.10;;;28.70;99.90;;;;;;5248770;28;20038;-86
2023/09/02 08:35:50;;;;;;;;;;;28.90;99.90;;;;;;5248770;28;20113;-86
2023/09/02 08:38:25;;;;;;;1.50;1.30;;;29.00;99.90;;;;;;5265356;28;19906;-85
2023/09/02 08:40:58;;;;;;;1.63;1.27;;;29.10;99.90;;;;;;5265508;28;20024;-86
2023/09/02 08:43:30;;;;;;;1.52;1.10;;;29.10;99.90;;;;;;5264824;28;20050;-86
2023/09/02 08:46:06;;;;;;;1.48;1.30;;;29.20;99.90;;;;;;5265435;28;20024;-85
2023/09/02 08:48:42;;;;;;;1.40;1.30;;;29.30;99.90;;;;;;5232504;28;20341;-86
2023/09/02 08:51:14;;;;;;;1.50;1.40;;;29.20;99.90;;;;;;5264970;28;20024;-87
2023/09/02 08:53:52;;;;;;;1.52;1.17;;;29.50;99.90;;;;;;5265246;28;20030;-86
2023/09/02 08:59:51;;;;;;;1.10;0.95;;;29.90;1.00;;;;;;5283376;28;20027;-86
2023/09/02 09:02:23;;;;;;;1.48;1.00;;;29.40;1.00;;;;;;5249215;28;20038;-86
2023/09/02 09:05:00;;;;;;;2.15;1.35;;;29.70;1.00;;;;;;5265666;28;20318;-86
2023/09/02 09:07:32;;;;;;;1.25;0.98;;;30.00;1.00;;;;;;5264436;28;20040;-86
2023/09/02 09:10:11;;;;;;;1.20;1.10;;;30.40;1.00;;;;;;5281751;28;20032;-85
2023/09/02 09:12:47;;;;;;;1.42;1.13;;;30.90;1.00;;;;;;5266525;28;20215;-87
2023/09/02 09:15:21;;;;;;;1.13;1.02;;;30.90;99.90;;;;;;5264413;28;20028;-86
2023/09/02 09:17:55;;;;;;;1.33;1.05;;;30.50;99.90;;;;;;5247994;28;20036;-86
2023/09/02 09:20:32;;;;;;;1.30;1.20;;;30.60;99.90;;;;;;5280659;28;20027;-86
2023/09/02 09:23:11;;;;;;;1.10;1.00;;;30.70;99.90;;;;;;5279537;28;20030;-86
2023/09/02 09:25:44;;;;;;;1.10;1.00;;;30.70;99.90;;;;;;5264499;28;20050;-87
2023/09/02 09:28:18;;;;;;;1.48;1.20;;;29.90;99.90;;;;;;5264528;28;20034;-86
2023/09/02 09:30:52;;;;;;;1.67;1.27;;;29.70;99.90;;;;;;5264330;28;20027;-86
2023/09/02 09:33:26;;;;;;;;;;;30.30;99.90;;;;;;5263879;28;20031;-86
2023/09/02 09:36:10;;;;;;;1.55;1.45;;;30.90;99.90;;;;;;5263965;28;19922;-85
2023/09/02 09:38:41;;;;;;;1.73;1.30;;;30.50;99.90;;;;;;5264661;28;20028;-85
2023/09/02 09:41:13;;;;;;;1.52;1.20;;;30.70;99.90;;;;;;5247658;28;20028;-86
2023/09/02 09:43:45;;;;;;;1.45;1.35;;;30.90;99.90;;;;;;5264046;28;20028;-86
2023/09/02 09:46:19;;;;;;;2.47;1.13;;;31.30;99.90;;;;;;5247722;28;20032;-86
2023/09/02 09:48:51;;;;;;;1.80;1.30;;;31.50;50.30;;;;;;5263481;28;20034;-84
2023/09/02 09:51:25;;;;;;;1.45;1.17;;;31.90;99.90;;;;;;5263356;28;20322;-85
2023/09/02 09:53:59;;;;;;;1.48;1.20;;;32.20;96.00;;;;;;5263229;28;20032;-87
2023/09/02 09:56:30;;;;;;;2.30;1.50;;;32.70;99.90;;;;;;5263089;28;20311;-85
2023/09/02 09:59:10;;;;;;;1.38;1.20;;;32.40;60.80;;;;;;5262644;28;20050;-85
2023/09/02 10:01:52;;;;;;;2.00;1.60;;;32.50;12.90;;;;;;5264104;28;20034;-86
2023/09/02 10:04:29;;;;;;;1.70;1.30;;;32.30;1.00;;;;;;5263863;28;20032;-85
2023/09/02 10:07:04;;;;;;;1.98;1.10;;;32.40;99.90;;;;;;5261258;28;20028;-86
2023/09/02 10:09:48;;;;;;;1.35;1.13;;;32.10;1.00;;;;;;5263508;28;20067;-86
2023/09/02 10:12:22;;;;;;;;;;;32.20;1.00;;;;;;5263787;28;20038;-86
2023/09/02 10:14:53;;;;;;;1.73;1.43;;;32.80;1.00;;;;;;5263046;28;20200;-86
2023/09/02 10:17:32;;;;;;;1.70;1.10;;;33.90;1.00;;;;;;5263170;28;20031;-86
2023/09/02 10:20:05;;;;;;;1.73;1.20;;;34.00;1.00;;;;;;5263307;28;20028;-86
2023/09/02 10:22:45;;;;;;;1.70;1.20;;;34.50;1.00;;;;;;5262248;28;20024;-86
2023/09/02 10:25:27;;;;;;;1.73;1.60;;;33.50;99.90;;;;;;5263255;28;20030;-86
2023/09/02 10:28:11;;;;;;;1.50;1.33;;;33.10;99.90;;;;;;5281051;28;20028;-87
2023/09/02 10:30:54;;;;;;;1.83;1.48;;;33.80;99.90;;;;;;5262750;28;20032;-86
2023/09/02 10:33:56;;;;;;;1.23;1.13;;;33.80;99.90;;;;;;5263735;28;20036;-85
2023/09/02 10:36:35;;;;;;;2.22;1.27;;;34.10;99.90;;;;;;5262836;28;20058;-86
2023/09/02 10:39:13;;;;;;;1.50;1.33;;;34.60;99.90;;;;;;5263129;28;20195;-86
2023/09/02 10:41:49;;;;;;;3.20;1.27;;;35.10;99.90;;;;;;5262697;28;20210;-86
2023/09/02 10:44:27;;;;;;;1.90;1.65;;;33.70;99.90;;;;;;5262836;28;20024;-85
2023/09/02 10:47:02;;;;;;;1.30;1.20;;;31.90;99.90;;;;;;5279961;28;20039;-86
2023/09/02 10:49:34;;;;;;;1.52;1.30;;;32.50;99.90;;;;;;5262569;28;20213;-84
2023/09/02 10:52:06;;;;;;;1.58;1.33;;;33.00;99.90;;;;;;5262526;28;20038;-86
2023/09/02 10:55:03;;;;;;;1.85;1.67;;;33.10;99.90;;;;;;5279145;28;20036;-86
2023/09/02 10:57:56;;;;;;;1.25;1.08;;;32.90;99.90;;;;;;5266824;28;20028;-86
2023/09/02 11:00:28;;;;;;;2.10;1.40;;;34.20;99.90;;;;;;5279031;28;20038;-88
2023/09/02 11:03:07;;;;;;;2.08;1.40;;;36.50;99.90;;;;;;5246050;28;20040;-85
2023/09/02 11:06:11;;;;;;;1.70;1.30;;;37.60;99.90;;;;;;5248553;28;20042;-90
2023/09/02 11:09:09;;;;;;;1.70;1.50;;;38.50;1.00;;;;;;5269956;28;20035;-88
2023/09/02 11:12:12;;;;;;;1.85;1.67;;;39.60;1.00;;;;;;5255883;28;20028;-88
2023/09/02 11:15:12;;;;;;;1.77;1.50;;;39.60;99.90;;;;;;5258440;28;20028;-89
2023/09/02 11:17:53;;;;;;;1.48;1.38;;;38.20;99.90;;;;;;5276168;28;20027;-87
2023/09/02 11:21:12;;;;;;;1.80;1.67;;;37.70;99.90;;;;;;5268828;28;20028;-88
2023/09/02 11:24:22;;;;;;;1.52;1.42;;;36.20;99.90;;;;;;5276720;28;20030;-87
2023/09/02 11:27:24;;;;;;;2.53;1.20;;;34.40;99.90;;;;;;5280324;28;20032;-88
2023/09/02 11:30:29;;;;;;;1.27;1.10;;;33.40;99.90;;;;;;5266115;28;20024;-88
2023/09/02 11:33:08;;;;;;;2.35;1.55;;;33.40;99.90;;;;;;5286651;28;20023;-87
2023/09/02 11:35:39;;;;;;;3.58;1.50;;;33.20;99.90;;;;;;5250373;28;20024;-86
2023/09/02 11:38:39;;;;;;;2.05;1.55;;;34.30;99.90;;;;;;5251661;28;20031;-88
2023/09/02 11:41:26;;;;;;;1.50;1.20;;;34.40;99.90;;;;;;5246721;28;20028;-86
2023/09/02 11:44:08;;;;;;;1.88;1.48;;;33.70;99.90;;;;;;5252866;28;20028;-85
2023/09/02 11:46:43;;;;;;;2.05;1.30;;;33.40;99.90;;;;;;5239073;28;20028;-88
2023/09/02 11:49:26;;;;;;;1.45;1.15;;;33.50;99.90;;;;;;5284979;28;20035;-87
2023/09/02 11:52:04;;;;;;;2.70;1.20;;;33.60;99.90;;;;;;5270212;28;20032;-87
2023/09/02 11:54:45;;;;;;;1.88;1.27;;;33.90;99.90;;;;;;5238980;28;20040;-86
2023/09/02 11:57:18;;;;;;;1.35;1.13;;;34.30;99.90;;;;;;5269691;28;20044;-87
2023/09/02 11:59:57;;;;;;;1.67;1.35;;;34.60;99.90;;;;;;5287126;28;20034;-87
2023/09/02 12:02:35;;;;;;;1.70;1.25;;;34.60;99.90;;;;;;5254996;28;20040;-88
2023/09/02 12:05:07;;;;;;;1.40;1.20;;;35.90;99.90;;;;;;5254572;28;20042;-88
2023/09/02 12:07:43;;;;;;;1.33;1.23;;;38.10;1.00;;;;;;5271381;28;20028;-87
2023/09/02 12:13:42;;;;;;;1.50;1.40;;;36.70;99.90;;;;;;5293987;28;20036;-87
2023/09/02 12:16:22;;;;;;;2.00;1.52;;;35.90;99.90;;;;;;5287560;28;20049;-87
2023/09/02 12:18:56;;;;;;;1.10;1.00;;;35.40;99.90;;;;;;5272831;28;20039;-88
2023/09/02 12:21:34;;;;;;;1.52;1.02;;;36.20;99.90;;;;;;5271182;28;20020;-87
2023/09/02 12:24:14;;;;;;;2.03;1.35;;;34.70;99.90;;;;;;5271424;28;20020;-86
2023/09/02 12:26:55;;;;;;;1.70;1.40;;;34.20;99.90;;;;;;5237566;28;20030;-87
2023/09/02 12:29:32;;;;;;;1.35;1.17;;;33.80;99.90;;;;;;5288168;28;20032;-87
2023/09/02 12:32:05;;;;;;;1.42;1.23;;;33.80;99.90;;;;;;5271450;28;20028;-87
2023/09/02 12:34:43;;;;;;;1.33;1.17;;;34.10;99.90;;;;;;5272236;28;20040;-88
2023/09/02 12:37:27;;;;;;;2.00;1.48;;;34.70;99.90;;;;;;5255692;28;20036;-87
2023/09/02 12:40:22;;;;;;;5.55;1.80;;;34.20;99.90;;;;;;5274739;28;20028;-88
2023/09/02 12:43:03;;;;;;;2.22;1.08;;;33.30;99.90;;;;;;5275203;28;20042;-88
2023/09/02 12:46:01;;;;;;;2.00;1.10;;;32.10;99.90;;;;;;5275184;28;20026;-88
2023/09/02 12:48:46;;;;;;;1.35;1.00;;;31.30;99.90;;;;;;5253474;28;20034;-87
2023/09/02 12:51:30;;;;;;;1.77;1.00;;;31.00;99.90;;;;;;5257358;28;20032;-89
2023/09/02 12:54:15;;;;;;;;;;;31.00;99.90;;;;;;5273251;28;20031;-88
2023/09/02 12:56:50;;;;;;;2.63;1.10;;;33.10;99.90;;;;;;5268680;28;19910;-88
2023/09/02 12:59:28;;;;;;;1.83;1.20;;;35.60;99.90;;;;;;5271495;28;20309;-88
2023/09/02 13:02:02;;;;;;;1.10;1.00;;;37.70;99.90;;;;;;5287206;28;20035;-87
2023/09/02 13:04:36;;;;;;;1.52;1.27;;;38.10;99.90;;;;;;5271046;28;20044;-87
2023/09/02 13:07:12;;;;;;;3.28;1.40;;;38.50;99.90;;;;;;5289628;28;20035;-87
2023/09/02 13:09:52;;;;;;;1.80;1.70;;;39.50;99.90;;;;;;5274937;28;20038;-87
2023/09/02 13:12:27;;;;;;;2.15;1.42;;;38.40;1.00;;;;;;5257817;28;20031;-87
2023/09/02 13:14:59;;;;;;;1.40;1.13;;;36.90;99.90;;;;;;5270826;28;20031;-87
2023/09/02 13:17:31;;;;;;;1.35;1.02;;;35.40;99.90;;;;;;5256323;28;20031;-86
2023/09/02 13:20:05;;;;;;;1.70;1.23;;;33.80;90.60;;;;;;5273232;28;20037;-87
2023/09/02 13:22:42;;;;;;;1.10;1.08;;;33.20;97.70;;;;;;5307788;28;20034;-87
2023/09/02 13:25:18;;;;;;;1.63;1.30;;;33.50;99.90;;;;;;5284364;28;20035;-86
2023/09/02 13:27:53;;;;;;;1.65;1.30;;;35.00;99.90;;;;;;5273634;28;20027;-88
2023/09/02 13:30:32;;;;;;;1.20;1.10;;;37.00;99.90;;;;;;5295309;28;20310;-87
2023/09/02 13:33:13;;;;;;;1.67;1.58;;;38.30;99.90;;;;;;5272376;28;20042;-87
2023/09/02 13:36:09;;;;;;;2.50;1.33;;;38.70;1.00;;;;;;5294576;28;20029;-88
2023/09/02 13:38:44;;;;;;;1.80;1.20;;;39.20;1.00;;;;;;5308816;28;20037;-89
2023/09/02 13:41:20;;;;;;;1.75;1.48;;;38.30;1.00;;;;;;5272743;28;20031;-88
2023/09/02 13:43:58;;;;;;;1.45;1.35;;;37.30;1.00;;;;;;5290038;28;20060;-87
2023/09/02 13:46:38;;;;;;;1.23;1.10;;;37.80;1.00;;;;;;5290544;28;20023;-88
2023/09/02 13:49:14;;;;;;;1.85;1.52;;;38.60;1.00;;;;;;5272155;28;20024;-88
2023/09/02 13:51:53;;;;;;;2.00;1.50;;;38.50;1.00;;;;;;5271021;28;20298;-88